Time;durP1;ratioP1;P1;durP2;ratioP2;P2;SDS_P1;SDS_P2;PMS_P1;PMS_P2;Temp;Humidity;BMP_temperature;BMP_pressure;BME280_temperature;BME280_humidity;BME280_pressure;Samples;Min_cycle;Max_cycle;Signal;HPM_P1;HPM_P2
2022/01/13 00:01:28;;;;;;;68.00;24.38;;;;;;;0.62;100.00;104005.66;4996653;28;20105;-82
2022/01/13 00:03:54;;;;;;;69.85;25.33;;;;;;;0.62;100.00;104000.41;5003328;28;20087;-82
2022/01/13 00:06:19;;;;;;;87.75;25.00;;;;;;;0.62;100.00;104008.28;4988951;28;20061;-82
2022/01/13 00:08:44;;;;;;;67.78;24.38;;;;;;;0.66;100.00;104007.56;4989370;28;20103;-82
2022/01/13 00:11:10;;;;;;;67.82;24.10;;;;;;;0.63;100.00;104003.13;4966795;28;20039;-82
2022/01/13 00:13:50;;;;;;;72.10;25.88;;;;;;;0.65;100.00;104013.66;4986899;28;20038;-82
2022/01/13 00:24:15;;;;;;;66.03;21.67;;;;;;;0.54;100.00;104018.44;4989095;28;20042;-82
2022/01/13 00:26:41;;;;;;;75.47;22.25;;;;;;;0.48;100.00;104008.59;4988599;28;20160;-82
2022/01/13 00:29:08;;;;;;;76.25;22.42;;;;;;;0.56;100.00;104026.38;4987415;28;20395;-82
2022/01/13 00:31:37;;;;;;;67.88;23.40;;;;;;;0.54;100.00;104022.78;4988227;28;20037;-82
2022/01/13 00:34:05;;;;;;;62.30;22.95;;;;;;;0.55;100.00;104028.13;4986684;28;20054;-82
2022/01/13 00:36:34;;;;;;;63.08;22.95;;;;;;;0.53;100.00;104018.38;4985400;28;20088;-82
2022/01/13 00:38:59;;;;;;;65.57;22.65;;;;;;;0.55;100.00;104022.88;4987699;28;20077;-82
2022/01/13 00:41:27;;;;;;;62.58;23.27;;;;;;;0.56;100.00;104024.66;4983268;28;20030;-82
2022/01/13 00:43:54;;;;;;;56.65;23.65;;;;;;;0.56;100.00;104016.78;4986544;28;20026;-82
2022/01/13 00:46:22;;;;;;;64.30;23.70;;;;;;;0.54;100.00;104010.56;4979124;28;20057;-82
2022/01/13 00:48:49;;;;;;;66.68;21.73;;;;;;;0.53;100.00;104005.28;4969539;28;20047;-82
2022/01/13 00:51:15;;;;;;;67.63;23.88;;;;;;;0.52;100.00;104007.00;4985932;28;20069;-82
2022/01/13 00:53:40;;;;;;;72.50;24.05;;;;;;;0.51;100.00;104002.59;4988848;28;20037;-82
2022/01/13 00:56:06;;;;;;;77.88;23.92;;;;;;;0.49;100.00;103997.28;4987468;28;20033;-82
2022/01/13 00:58:33;;;;;;;71.88;22.55;;;;;;;0.53;100.00;104000.03;4988503;28;20552;-82
2022/01/13 01:01:03;;;;;;;70.90;24.27;;;;;;;0.53;100.00;104000.03;4985861;28;20050;-82
2022/01/13 01:03:29;;;;;;;68.78;24.58;;;;;;;0.49;100.00;104005.16;4988213;28;20038;-82
2022/01/13 01:05:55;;;;;;;68.15;24.23;;;;;;;0.53;100.00;104000.03;4987831;28;20093;-82
2022/01/13 01:08:22;;;;;;;67.88;23.83;;;;;;;0.54;100.00;104007.06;4988457;28;20495;-82
2022/01/13 01:10:52;;;;;;;73.13;23.77;;;;;;;0.53;100.00;104007.91;4985647;28;20242;-82
2022/01/13 01:13:21;;;;;;;66.68;23.77;;;;;;;0.44;100.00;103984.84;4987934;28;20088;-82
2022/01/13 01:15:51;;;;;;;65.18;24.05;;;;;;;0.49;100.00;104005.16;4988311;28;20022;-82
2022/01/13 01:18:29;;;;;;;60.65;23.08;;;;;;;0.46;100.00;104006.75;4988132;28;20081;-82
2022/01/13 01:23:29;;;;;;;;;;;;;;;0.48;100.00;104005.97;4988641;28;20291;-82
2022/01/13 01:26:09;;;;;;;59.63;21.88;;;;;;;0.44;100.00;104004.06;4990135;28;20318;-82
2022/01/13 01:28:45;;;;;;;68.65;23.10;;;;;;;0.42;100.00;104011.00;4994164;28;20034;-81
2022/01/13 01:31:12;;;;;;;56.35;21.30;;;;;;;0.42;100.00;104003.13;4985962;28;20480;-82
2022/01/13 01:33:41;;;;;;;57.25;23.17;;;;;;;0.39;100.00;104002.09;4988051;28;20482;-82
2022/01/13 01:36:11;;;;;;;62.83;23.10;;;;;;;0.37;100.00;103999.41;4970303;28;20038;-82
2022/01/13 01:38:37;;;;;;;66.45;23.30;;;;;;;0.34;100.00;104001.03;4983615;28;20029;-82
2022/01/13 01:41:02;;;;;;;63.75;22.95;;;;;;;0.33;100.00;104005.34;4982424;28;20030;-82
2022/01/13 01:43:28;;;;;;;60.85;24.23;;;;;;;0.24;100.00;103991.84;4987848;28;20419;-82
2022/01/13 01:45:54;;;;;;;66.50;23.90;;;;;;;0.29;100.00;103999.91;4987936;28;20030;-82
2022/01/13 01:48:20;;;;;;;60.03;22.50;;;;;;;0.31;100.00;104006.13;4987647;28;20029;-82
2022/01/13 01:50:54;;;;;;;62.30;23.80;;;;;;;0.27;100.00;104005.09;4985547;28;20026;-82
2022/01/13 01:53:20;;;;;;;56.42;21.60;;;;;;;0.27;100.00;104001.59;4988006;28;20026;-82
2022/01/13 01:55:45;;;;;;;58.28;21.50;;;;;;;0.31;100.00;104006.13;4987760;28;20395;-82
2022/01/13 01:58:11;;;;;;;59.45;23.33;;;;;;;0.32;100.00;104000.03;4985539;28;20047;-82
2022/01/13 02:00:36;;;;;;;56.00;22.65;;;;;;;0.31;100.00;103988.66;4987878;28;20480;-82
2022/01/13 02:03:05;;;;;;;70.47;24.63;;;;;;;0.35;100.00;103984.47;4981745;28;20034;-82
2022/01/13 02:05:30;;;;;;;63.67;22.73;;;;;;;0.35;100.00;103980.09;4986114;28;20049;-82
2022/01/13 02:07:55;;;;;;;57.58;22.23;;;;;;;0.35;100.00;103979.22;4991823;28;20023;-82
2022/01/13 02:10:21;;;;;;;72.18;22.73;;;;;;;0.31;100.00;103977.31;4988377;28;20066;-82
2022/01/13 02:12:51;;;;;;;72.07;23.98;;;;;;;0.29;100.00;103973.72;4991875;28;20376;-82
2022/01/13 02:15:29;;;;;;;68.30;23.30;;;;;;;0.30;100.00;103981.66;4990922;28;20040;-82
2022/01/13 02:17:56;;;;;;;63.05;23.20;;;;;;;0.29;100.00;103986.81;4988558;28;20045;-82
2022/01/13 02:20:21;;;;;;;71.90;25.00;;;;;;;0.23;100.00;103977.88;4988835;28;20852;-82
2022/01/13 02:22:46;;;;;;;63.33;22.88;;;;;;;0.30;100.00;103988.63;4976988;28;20023;-82
2022/01/13 02:25:14;;;;;;;74.93;23.10;;;;;;;0.30;100.00;103991.25;4970650;28;20038;-82
2022/01/13 02:27:39;;;;;;;63.25;21.83;;;;;;;0.27;100.00;103989.38;4986024;28;20027;-82
2022/01/13 02:30:05;;;;;;;68.78;22.98;;;;;;;0.26;100.00;104005.03;4980597;28;20444;-82
2022/01/13 02:32:30;;;;;;;64.32;23.23;;;;;;;0.23;100.00;104006.69;4990843;28;20026;-82
2022/01/13 02:34:55;;;;;;;62.38;23.58;;;;;;;0.22;100.00;104014.50;4990375;28;20118;-82
2022/01/13 02:37:20;;;;;;;76.30;22.58;;;;;;;0.21;100.00;104010.97;4989894;28;20030;-82
2022/01/13 02:39:46;;;;;;;68.45;22.80;;;;;;;0.20;100.00;104013.50;4989186;28;20455;-82
2022/01/13 02:42:14;;;;;;;69.50;23.33;;;;;;;0.17;100.00;104011.69;4990677;28;20037;-82
2022/01/13 02:45:01;;;;;;;55.72;22.55;;;;;;;0.18;100.00;104007.31;4990710;28;20030;-82
2022/01/13 02:50:09;;;;;;;72.72;23.60;;;;;;;0.15;100.00;104004.56;4988037;28;20384;-81
2022/01/13 02:52:34;;;;;;;59.30;22.88;;;;;;;0.14;100.00;103997.53;4990299;28;20026;-82
2022/01/13 02:54:59;;;;;;;60.92;21.83;;;;;;;0.17;100.00;104000.31;4990562;28;20028;-82
2022/01/13 02:57:25;;;;;;;75.78;23.90;;;;;;;0.18;100.00;103996.84;4973062;28;20077;-82
2022/01/13 02:59:50;;;;;;;67.95;23.70;;;;;;;0.21;100.00;104002.22;4988772;28;20496;-82
2022/01/13 03:02:15;;;;;;;59.65;21.08;;;;;;;0.18;100.00;103996.84;4990344;28;20028;-82
2022/01/13 03:04:48;;;;;;;71.10;24.55;;;;;;;0.19;100.00;103996.00;4990624;28;20030;-82
2022/01/13 03:07:14;;;;;;;71.80;23.40;;;;;;;0.18;100.00;104002.09;4989343;28;20121;-81
2022/01/13 03:09:41;;;;;;;59.70;23.23;;;;;;;0.13;100.00;103987.91;4987103;28;20046;-82
2022/01/13 03:12:07;;;;;;;57.17;21.20;;;;;;;0.17;100.00;103993.34;4990300;28;20117;-82
2022/01/13 03:14:33;;;;;;;67.88;20.58;;;;;;;0.16;100.00;103988.91;4990400;28;20030;-82
2022/01/13 03:16:58;;;;;;;75.70;23.58;;;;;;;0.15;100.00;103981.00;4989973;28;20113;-82
2022/01/13 03:19:23;;;;;;;72.97;22.35;;;;;;;0.12;100.00;103967.75;4988332;28;20042;-82
2022/01/13 03:21:48;;;;;;;72.15;22.15;;;;;;;0.12;100.00;103970.38;4990266;28;20325;-82
2022/01/13 03:24:14;;;;;;;63.28;22.05;;;;;;;0.12;100.00;103979.13;4990042;28;20041;-83
2022/01/13 03:26:41;;;;;;;65.88;23.33;;;;;;;0.11;100.00;103974.72;4990651;28;20088;-82
2022/01/13 03:31:38;;;;;;;64.63;24.40;;;;;;;0.11;100.00;103969.50;4990694;28;20042;-82
2022/01/13 03:34:04;;;;;;;80.13;23.55;;;;;;;0.11;100.00;103972.09;4989561;28;20112;-82
2022/01/13 03:36:29;;;;;;;76.55;23.80;;;;;;;0.14;100.00;103974.88;4989923;28;20042;-82
2022/01/13 03:38:55;;;;;;;65.72;23.45;;;;;;;0.14;100.00;103979.22;4986896;28;20038;-82
2022/01/13 03:41:22;;;;;;;67.00;23.00;;;;;;;0.11;100.00;103979.06;4979475;28;20429;-82
2022/01/13 03:43:51;;;;;;;71.05;23.88;;;;;;;0.18;100.00;103987.25;4989593;28;20033;-82
2022/01/13 03:46:16;;;;;;;68.60;23.83;;;;;;;0.15;100.00;103978.38;4989143;28;20037;-82
2022/01/13 03:48:42;;;;;;;86.30;22.55;;;;;;;0.15;100.00;103975.75;4987354;28;20027;-82
2022/01/13 03:51:08;;;;;;;68.82;23.73;;;;;;;0.17;100.00;103979.34;4988974;28;20530;-81
2022/01/13 03:54:31;;;;;;;71.22;24.00;;;;;;;0.19;100.00;103975.06;4989782;28;20038;-82
2022/01/13 03:57:55;;;;;;;69.00;23.58;;;;;;;0.19;100.00;103988.16;4890610;29;20384;-82
2022/01/13 04:00:43;;;;;;;73.80;22.90;;;;;;;0.17;100.00;103980.25;4858222;29;20053;-82
2022/01/13 04:03:08;;;;;;;71.13;22.40;;;;;;;0.16;100.00;103985.41;4890427;29;20040;-82
2022/01/13 04:05:59;;;;;;;75.45;24.67;;;;;;;0.16;100.00;103980.16;4890969;29;20048;-82
2022/01/13 04:08:25;;;;;;;66.38;23.23;;;;;;;0.12;100.00;103976.50;4890255;29;20052;-82
2022/01/13 04:10:53;;;;;;;73.93;23.38;;;;;;;0.13;100.00;103980.94;4890923;29;20100;-82
2022/01/13 04:13:44;;;;;;;84.45;25.02;;;;;;;0.12;100.00;103965.13;4890246;29;20067;-82
2022/01/13 04:16:14;;;;;;;79.32;24.80;;;;;;;0.13;100.00;103961.72;4893124;29;20041;-82
2022/01/13 04:18:40;;;;;;;84.95;24.58;;;;;;;0.16;100.00;103972.31;4888657;29;20434;-82
2022/01/13 04:21:06;;;;;;;69.43;22.75;;;;;;;0.12;100.00;103959.91;4889875;29;20041;-82
2022/01/13 04:23:32;;;;;;;78.35;22.40;;;;;;;0.15;100.00;103962.66;4891317;29;20040;-82
2022/01/13 04:25:57;;;;;;;78.18;24.23;;;;;;;0.15;100.00;103955.69;4890794;29;20068;-82
2022/01/13 04:28:27;;;;;;;76.90;22.80;;;;;;;0.15;100.00;103957.41;4890616;29;20072;-82
2022/01/13 04:31:00;;;;;;;79.53;24.02;;;;;;;0.13;100.00;103962.59;4936113;28;20046;-82
2022/01/13 04:33:29;;;;;;;70.53;23.30;;;;;;;0.10;100.00;103972.94;4988170;28;20101;-82
2022/01/13 04:35:54;;;;;;;73.18;24.45;;;;;;;0.09;100.00;103962.41;4985348;28;20449;-82
2022/01/13 04:38:19;;;;;;;88.88;26.27;;;;;;;0.09;100.00;103963.31;4987334;28;20065;-81
2022/01/13 04:40:47;;;;;;;84.40;25.98;;;;;;;0.10;100.00;103969.44;4985657;28;20038;-82
2022/01/13 04:43:13;;;;;;;95.40;27.30;;;;;;;0.10;100.00;103967.72;4985792;28;20480;-82
2022/01/13 04:45:39;;;;;;;83.32;26.10;;;;;;;0.05;100.00;103964.00;4986618;28;20042;-82
2022/01/13 04:48:05;;;;;;;82.47;24.58;;;;;;;0.06;100.00;103957.94;4985678;28;20117;-82
2022/01/13 04:50:30;;;;;;;97.78;26.05;;;;;;;0.07;100.00;103961.44;4984361;28;20022;-81
2022/01/13 04:52:55;;;;;;;86.20;24.90;;;;;;;0.09;100.00;103971.16;4986494;28;20045;-82
2022/01/13 04:55:26;;;;;;;93.78;27.83;;;;;;;0.10;100.00;103961.56;4986747;28;20033;-82
2022/01/13 04:57:52;;;;;;;89.80;24.08;;;;;;;0.08;100.00;103955.38;4985016;28;20081;-82
2022/01/13 05:00:18;;;;;;;96.97;28.73;;;;;;;0.08;100.00;103948.41;4984760;28;20479;-82
2022/01/13 05:02:43;;;;;;;84.10;26.63;;;;;;;0.08;100.00;103948.41;4985976;28;20034;-82
2022/01/13 05:05:09;;;;;;;89.43;26.48;;;;;;;0.10;100.00;103953.72;4986003;28;20183;-82
2022/01/13 05:07:35;;;;;;;107.70;30.52;;;;;;;0.10;100.00;103953.72;4969285;28;20061;-82
2022/01/13 05:10:00;;;;;;;113.07;30.98;;;;;;;0.12;100.00;103952.03;4984808;28;20030;-82
2022/01/13 05:12:32;;;;;;;120.03;31.67;;;;;;;0.10;100.00;103952.00;4983631;28;20035;-82
2022/01/13 05:15:03;;;;;;;109.63;31.13;;;;;;;0.14;100.00;103953.91;4986069;28;20038;-82
2022/01/13 05:18:03;;;;;;;138.05;35.17;;;;;;;0.13;100.00;103956.47;4987322;28;20682;-82
2022/01/13 05:20:38;;;;;;;110.45;30.85;;;;;;;0.13;100.00;103956.47;4982772;28;20091;-82
2022/01/13 05:23:04;;;;;;;112.18;31.13;;;;;;;0.13;100.00;103946.91;4988414;28;20031;-82
2022/01/13 05:25:30;;;;;;;104.97;32.05;;;;;;;0.16;100.00;103949.63;4988330;28;20254;-82
2022/01/13 05:27:55;;;;;;;112.60;33.40;;;;;;;0.18;100.00;103955.84;4987420;28;20088;-82
2022/01/13 05:30:20;;;;;;;121.22;33.05;;;;;;;0.19;100.00;103951.47;4986656;28;20461;-82
2022/01/13 05:32:46;;;;;;;124.03;33.78;;;;;;;0.21;100.00;103953.34;4986941;28;20037;-82
2022/01/13 05:35:12;;;;;;;132.77;33.20;;;;;;;0.24;100.00;103949.94;4977432;28;20030;-82
2022/01/13 05:37:37;;;;;;;127.65;34.10;;;;;;;0.22;100.00;103946.38;4970446;28;20533;-82
2022/01/13 05:40:03;;;;;;;150.68;34.67;;;;;;;0.25;100.00;103964.81;4984741;28;20471;-82
2022/01/13 05:42:28;;;;;;;133.65;31.48;;;;;;;0.22;100.00;103943.75;4988305;28;20356;-82
2022/01/13 05:44:56;;;;;;;154.07;36.53;;;;;;;0.19;100.00;103938.38;4987722;28;20081;-82
2022/01/13 05:47:21;;;;;;;141.10;35.95;;;;;;;0.24;100.00;103949.94;4987633;28;20030;-82
2022/01/13 05:49:47;;;;;;;132.38;34.28;;;;;;;0.24;100.00;103950.84;4985098;28;20042;-82
2022/01/13 05:52:14;;;;;;;139.50;36.90;;;;;;;0.26;100.00;103952.66;4987556;28;20510;-82
2022/01/13 05:54:40;;;;;;;123.72;35.15;;;;;;;0.26;100.00;103950.91;4987533;28;20038;-82
2022/01/13 05:57:06;;;;;;;118.40;33.38;;;;;;;0.28;100.00;103953.59;4987782;28;20042;-82
2022/01/13 05:59:32;;;;;;;126.75;34.30;;;;;;;0.27;100.00;103951.81;4985136;28;20033;-82
2022/01/13 06:01:57;;;;;;;122.50;33.75;;;;;;;0.23;100.00;103942.91;4986276;28;20342;-82
2022/01/13 06:04:23;;;;;;;122.38;34.05;;;;;;;0.24;100.00;103942.97;4987442;28;20042;-82
2022/01/13 06:06:48;;;;;;;142.88;33.97;;;;;;;0.25;100.00;103943.84;4988013;28;20026;-82
2022/01/13 06:09:13;;;;;;;142.30;33.80;;;;;;;0.22;100.00;103951.63;4984497;28;20030;-82
2022/01/13 06:11:51;;;;;;;171.02;38.08;;;;;;;0.13;100.00;103933.78;4987878;28;20034;-81
2022/01/13 06:14:16;;;;;;;142.38;36.78;;;;;;;0.26;100.00;103957.88;4987128;28;20038;-82
2022/01/13 06:16:41;;;;;;;140.35;35.92;;;;;;;0.26;100.00;103952.66;4987379;28;20025;-82
2022/01/13 06:19:06;;;;;;;138.55;34.83;;;;;;;0.28;100.00;103954.47;4985048;28;20026;-81
2022/01/13 06:21:32;;;;;;;136.65;36.50;;;;;;;0.30;100.00;103958.06;4983414;28;20117;-82
2022/01/13 06:23:57;;;;;;;131.35;34.60;;;;;;;0.32;100.00;103948.53;4969284;28;20403;-82
2022/01/13 06:26:22;;;;;;;145.30;37.40;;;;;;;0.31;100.00;103943.25;4987598;28;20081;-82
2022/01/13 06:28:48;;;;;;;131.15;34.03;;;;;;;0.32;100.00;103938.06;4984468;28;20023;-82
2022/01/13 06:31:13;;;;;;;160.25;34.75;;;;;;;0.23;100.00;103924.59;4986217;28;20022;-81
2022/01/13 06:33:38;;;;;;;132.27;35.00;;;;;;;0.28;100.00;103941.38;4987262;28;20034;-81
2022/01/13 06:36:04;;;;;;;119.68;33.95;;;;;;;0.25;100.00;103930.75;4964107;28;20031;-82
2022/01/13 06:38:30;;;;;;;148.75;35.25;;;;;;;0.26;100.00;103945.69;4972558;28;20405;-82
2022/01/13 06:40:56;;;;;;;128.25;34.08;;;;;;;0.23;100.00;103935.06;4987038;28;20369;-82
2022/01/13 06:43:21;;;;;;;128.18;34.42;;;;;;;0.27;100.00;103938.69;4987374;28;20117;-82
2022/01/13 06:45:47;;;;;;;144.40;35.97;;;;;;;0.26;100.00;103929.97;4990275;28;20085;-82
2022/01/13 06:48:12;;;;;;;125.85;31.63;;;;;;;0.23;100.00;103937.69;4988513;28;20029;-82
2022/01/13 06:50:37;;;;;;;164.15;35.03;;;;;;;0.22;100.00;103933.28;4982172;28;20491;-82
2022/01/13 06:53:02;;;;;;;127.32;33.67;;;;;;;0.26;100.00;103939.53;4986342;28;20504;-82
2022/01/13 06:55:28;;;;;;;118.68;32.00;;;;;;;0.26;100.00;103936.94;4991322;28;20022;-82
2022/01/13 06:57:53;;;;;;;132.13;32.22;;;;;;;0.27;100.00;103950.06;4991165;28;20092;-82
2022/01/13 07:00:20;;;;;;;150.27;33.53;;;;;;;0.19;100.00;103933.16;4986724;28;20365;-82
2022/01/13 07:02:45;;;;;;;126.15;34.38;;;;;;;0.27;100.00;103934.34;4987701;28;20022;-82
2022/01/13 07:05:11;;;;;;;135.02;32.55;;;;;;;0.25;100.00;103930.75;4989798;28;20511;-82
2022/01/13 07:07:41;;;;;;;167.82;33.80;;;;;;;0.28;100.00;103938.75;4990527;28;20038;-82
2022/01/13 07:10:09;;;;;;;143.05;35.00;;;;;;;0.24;100.00;103931.59;4988624;28;20034;-82
2022/01/13 07:12:35;;;;;;;157.82;34.80;;;;;;;0.25;100.00;103936.00;4990115;28;20030;-82
2022/01/13 07:15:00;;;;;;;153.65;34.83;;;;;;;0.20;100.00;103934.91;4990119;28;20369;-82
2022/01/13 07:17:26;;;;;;;144.90;33.95;;;;;;;0.22;100.00;103941.13;4989677;28;20472;-82
2022/01/13 07:19:51;;;;;;;135.70;32.97;;;;;;;0.25;100.00;103941.25;4987269;28;20030;-82
2022/01/13 07:22:18;;;;;;;144.35;33.67;;;;;;;0.26;100.00;103944.78;4982607;28;20037;-81
2022/01/13 07:24:43;;;;;;;231.32;40.70;;;;;;;0.28;100.00;103948.34;4989858;28;20085;-82
2022/01/13 07:27:09;;;;;;;177.85;36.08;;;;;;;0.27;100.00;103951.81;4970932;28;20399;-82
2022/01/13 07:29:34;;;;;;;150.88;35.50;;;;;;;0.27;100.00;103955.31;4983617;28;20043;-82
2022/01/13 07:32:00;;;;;;;137.02;34.10;;;;;;;0.26;100.00;103956.16;4989136;28;20122;-82
2022/01/13 07:34:25;;;;;;;151.80;34.63;;;;;;;0.24;100.00;103949.94;4988973;28;20088;-79
2022/01/13 07:36:50;;;;;;;149.00;35.28;;;;;;;0.27;100.00;103957.03;4989513;28;20472;-81
2022/01/13 07:39:15;;;;;;;116.38;28.95;;;;;;;0.25;100.00;103946.47;4986339;28;20026;-81
2022/01/13 07:41:42;;;;;;;118.35;29.60;;;;;;;0.27;100.00;103947.47;4984900;28;20023;-80
2022/01/13 07:44:07;;;;;;;160.57;32.85;;;;;;;0.26;100.00;103942.16;4997690;28;20522;-81
2022/01/13 07:46:33;;;;;;;155.88;29.95;;;;;;;0.26;100.00;103948.28;4996055;28;20070;-82
2022/01/13 07:48:59;;;;;;;117.43;28.15;;;;;;;0.29;100.00;103947.50;4987066;28;20476;-81
2022/01/13 07:51:24;;;;;;;101.18;26.92;;;;;;;0.30;100.00;103954.56;4989400;28;20027;-81
2022/01/13 07:53:49;;;;;;;114.70;28.17;;;;;;;0.32;100.00;103953.78;4989777;28;20048;-82
2022/01/13 07:56:14;;;;;;;139.32;30.70;;;;;;;0.34;100.00;103960.00;4970678;28;20077;-82
2022/01/13 07:58:41;;;;;;;155.48;33.65;;;;;;;0.34;100.00;103957.38;4988881;28;20042;-83
2022/01/13 08:01:07;;;;;;;134.07;31.58;;;;;;;0.35;100.00;103966.13;4988711;28;20432;-82
2022/01/13 08:03:33;;;;;;;136.05;32.50;;;;;;;0.35;100.00;103959.16;4990014;28;20038;-81
2022/01/13 08:06:00;;;;;;;120.55;30.77;;;;;;;0.35;100.00;103956.53;4989179;28;20030;-81
2022/01/13 08:08:25;;;;;;;140.77;32.08;;;;;;;0.34;100.00;103957.38;4985649;28;20035;-81
2022/01/13 08:10:51;;;;;;;147.60;31.35;;;;;;;0.36;100.00;103963.56;4984650;28;20089;-81
2022/01/13 08:13:16;;;;;;;138.95;29.20;;;;;;;0.35;100.00;103969.63;4987270;28;20120;-81
2022/01/13 08:15:41;;;;;;;113.00;29.17;;;;;;;0.36;100.00;103971.41;4979647;28;20358;-82
2022/01/13 08:20:50;;;;;;;111.68;29.50;;;;;;;0.38;100.00;103966.25;4987004;28;20040;-81
2022/01/13 08:23:16;;;;;;;135.13;30.60;;;;;;;0.41;100.00;103966.34;4988848;28;20022;-81
2022/01/13 08:25:41;;;;;;;98.68;26.90;;;;;;;0.37;100.00;103957.47;4987905;28;20411;-82
2022/01/13 08:28:07;;;;;;;108.20;27.63;;;;;;;0.44;100.00;103956.91;4985477;28;20094;-81
2022/01/13 08:30:33;;;;;;;117.38;29.67;;;;;;;0.44;100.00;103974.34;4979045;28;20034;-81
2022/01/13 08:32:58;;;;;;;108.55;28.75;;;;;;;0.46;100.00;103984.06;4972515;28;20026;-82
2022/01/13 08:35:23;;;;;;;109.72;29.10;;;;;;;0.50;100.00;103990.31;4988112;28;20092;-81
2022/01/13 08:37:49;;;;;;;121.65;29.98;;;;;;;0.51;100.00;103991.22;4969988;28;20030;-81
2022/01/13 08:40:15;;;;;;;100.35;25.75;;;;;;;0.49;100.00;103989.41;4987136;28;20057;-81
2022/01/13 08:42:40;;;;;;;95.93;24.65;;;;;;;0.48;100.00;103987.63;4987707;28;20412;-82
2022/01/13 08:45:08;;;;;;;107.55;24.35;;;;;;;0.48;100.00;103985.03;4987917;28;20434;-81
2022/01/13 08:47:34;;;;;;;96.65;24.77;;;;;;;0.52;100.00;103983.44;4987233;28;20692;-80
2022/01/13 08:50:00;;;;;;;103.60;27.13;;;;;;;0.56;100.00;103990.59;4986895;28;20613;-80
2022/01/13 08:52:25;;;;;;;119.00;27.70;;;;;;;0.52;100.00;103980.81;4988105;28;20069;-80
2022/01/13 08:54:55;;;;;;;116.03;28.13;;;;;;;0.55;100.00;103986.19;4987608;28;20037;-80
2022/01/13 08:57:21;;;;;;;103.25;28.40;;;;;;;0.58;100.00;103995.88;4987725;28;20495;-80
2022/01/13 08:59:46;;;;;;;96.20;28.02;;;;;;;0.61;100.00;103996.91;4985710;28;20277;-80
2022/01/13 09:02:11;;;;;;;97.30;27.00;;;;;;;0.65;100.00;103995.31;4987078;28;20124;-80
2022/01/13 09:04:37;;;;;;;94.15;27.15;;;;;;;0.63;100.00;104002.22;4987992;28;20030;-80
2022/01/13 09:07:02;;;;;;;108.68;26.83;;;;;;;0.68;100.00;104011.16;4987151;28;20038;-81
2022/01/13 09:09:29;;;;;;;91.57;23.75;;;;;;;0.69;100.00;104015.56;4985307;28;20030;-81
2022/01/13 09:11:54;;;;;;;83.88;24.80;;;;;;;0.65;100.00;104008.41;4987233;28;20038;-81
2022/01/13 09:14:25;;;;;;;98.75;28.23;;;;;;;0.73;100.00;104022.72;4984979;28;20037;-80
2022/01/13 09:16:51;;;;;;;84.43;25.15;;;;;;;0.72;100.00;104013.97;4988096;28;20092;-80
2022/01/13 09:19:18;;;;;;;99.68;24.08;;;;;;;0.73;100.00;104013.13;4984242;28;20144;-80
2022/01/13 09:21:44;;;;;;;96.47;25.30;;;;;;;0.74;100.00;104017.53;4987732;28;20129;-80
2022/01/13 09:24:12;;;;;;;88.88;24.23;;;;;;;0.76;100.00;104006.22;4986767;28;20030;-80
2022/01/13 09:26:38;;;;;;;100.65;25.88;;;;;;;0.77;100.00;104002.78;4987707;28;20036;-80
2022/01/13 09:29:08;;;;;;;91.97;24.80;;;;;;;0.74;100.00;104001.81;4984616;28;20034;-80
2022/01/13 09:31:35;;;;;;;87.20;25.80;;;;;;;0.78;100.00;104002.81;4987514;28;20117;-81
2022/01/13 09:34:02;;;;;;;86.97;25.20;;;;;;;0.79;100.00;104006.34;4982845;28;20041;-80
2022/01/13 09:36:33;;;;;;;85.93;24.20;;;;;;;0.88;100.00;104025.06;4987734;28;20029;-80
2022/01/13 09:39:00;;;;;;;93.43;25.40;;;;;;;0.86;100.00;104013.63;4985238;28;20077;-80
2022/01/13 09:41:30;;;;;;;102.15;26.13;;;;;;;0.89;100.00;104012.03;4985882;28;20068;-80
2022/01/13 09:43:57;;;;;;;86.07;24.88;;;;;;;0.87;100.00;104013.66;4987298;28;20034;-80
2022/01/13 09:46:26;;;;;;;80.60;23.60;;;;;;;0.89;100.00;104016.38;4987347;28;20065;-80
2022/01/13 09:48:51;;;;;;;93.18;25.73;;;;;;;0.87;100.00;104008.44;4984822;28;20031;-80
2022/01/13 09:51:16;;;;;;;82.60;23.15;;;;;;;0.94;100.00;104014.81;4987206;28;20085;-80
2022/01/13 09:53:41;;;;;;;104.35;25.77;;;;;;;0.90;100.00;104005.94;4986720;28;20098;-80
2022/01/13 09:56:07;;;;;;;89.95;23.38;;;;;;;0.94;100.00;104009.56;4986876;28;20036;-80
2022/01/13 09:58:33;;;;;;;86.53;23.90;;;;;;;0.93;100.00;104003.44;4985496;28;20029;-80
2022/01/13 10:00:58;;;;;;;90.25;25.65;;;;;;;0.94;100.00;104007.84;4987486;28;20110;-81
2022/01/13 10:03:28;;;;;;;87.28;22.25;;;;;;;0.94;100.00;104014.81;4987465;28;20273;-80
2022/01/13 10:05:59;;;;;;;108.28;25.20;;;;;;;0.93;100.00;104003.44;4987561;28;20057;-80
2022/01/13 10:08:41;;;;;;;83.82;23.13;;;;;;;0.91;100.00;103998.97;4984405;28;20025;-80
2022/01/13 10:11:25;;;;;;;81.00;23.67;;;;;;;1.06;100.00;104009.19;4986458;28;20514;-81
2022/01/13 10:14:03;;;;;;;93.80;24.92;;;;;;;1.05;100.00;104010.00;4999098;28;20035;-81
2022/01/13 10:16:28;;;;;;;80.80;23.80;;;;;;;1.05;100.00;104003.03;4985594;28;20076;-81
2022/01/13 10:18:54;;;;;;;77.88;23.17;;;;;;;1.06;100.00;104004.81;4982876;28;20030;-81
2022/01/13 10:21:20;;;;;;;84.28;22.80;;;;;;;1.07;100.00;103998.72;4984875;28;20530;-82
2022/01/13 10:24:09;;;;;;;77.97;23.27;;;;;;;1.17;100.00;104013.09;4974975;28;20098;-81
2022/01/13 10:26:36;;;;;;;104.80;23.42;;;;;;;1.18;100.00;104014.91;4987728;28;20026;-80
2022/01/13 10:29:04;;;;;;;78.78;24.38;;;;;;;1.20;100.00;104013.22;4989550;28;20490;-80
2022/01/13 10:32:02;;;;;;;88.68;21.63;;;;;;;1.22;100.00;104016.81;4989185;28;20182;-80
2022/01/13 10:34:28;;;;;;;81.18;23.20;;;;;;;1.22;100.00;104006.31;4917354;28;20352;-80
2022/01/13 10:37:12;;;;;;;85.32;25.65;;;;;;;1.29;100.00;104018.81;4983231;28;20035;-80
2022/01/13 10:39:52;;;;;;;78.93;24.92;;;;;;;1.28;100.00;104019.66;4971550;28;20038;-81
2022/01/13 10:45:07;;;;;;;87.55;23.20;;;;;;;1.31;100.00;104011.00;4990366;28;20386;-82
2022/01/13 10:47:33;;;;;;;77.13;22.25;;;;;;;1.29;100.00;104005.69;4994644;28;20023;-80
2022/01/13 10:50:04;;;;;;;79.78;22.40;;;;;;;1.29;100.00;104002.16;4983756;28;20023;-81
2022/01/13 10:52:29;;;;;;;84.15;21.60;;;;;;;1.32;100.00;103995.31;4978547;28;20381;-80
2022/01/13 10:55:21;;;;;;;83.07;22.27;;;;;;;1.34;100.00;103998.91;4990198;28;20129;-81
2022/01/13 10:57:48;;;;;;;72.05;21.40;;;;;;;1.30;100.00;103990.88;4972239;28;20074;-81
2022/01/13 11:00:16;;;;;;;64.22;21.20;;;;;;;1.37;100.00;103990.25;4974294;28;20030;-81
2022/01/13 11:02:41;;;;;;;99.90;25.08;;;;;;;1.39;100.00;103991.22;4990142;28;20030;-81
2022/01/13 11:05:10;;;;;;;77.00;24.42;;;;;;;1.38;100.00;103994.63;4971906;28;20574;-81
2022/01/13 11:07:35;;;;;;;83.63;23.65;;;;;;;1.32;100.00;103981.31;4991087;28;20037;-81
2022/01/13 11:10:03;;;;;;;79.88;23.30;;;;;;;1.39;100.00;103983.34;4978400;28;20030;-82
2022/01/13 11:12:36;;;;;;;70.32;23.38;;;;;;;1.41;100.00;103982.53;4995448;28;20080;-82
2022/01/13 11:15:08;;;;;;;78.13;22.67;;;;;;;1.45;100.00;103973.94;4992137;28;20030;-82
2022/01/13 11:17:38;;;;;;;63.97;19.95;;;;;;;1.53;100.00;103982.09;4978462;28;20023;-82
2022/01/13 11:20:05;;;;;;;72.80;21.98;;;;;;;1.53;100.00;103981.22;4982195;28;20018;-82
2022/01/13 11:22:35;;;;;;;68.57;20.58;;;;;;;1.46;100.00;103960.00;4990372;28;20109;-82
2022/01/13 11:25:05;;;;;;;69.38;19.10;;;;;;;1.49;100.00;103961.81;4978920;28;20039;-82
2022/01/13 11:27:31;;;;;;;61.58;19.13;;;;;;;1.48;100.00;103965.28;4975752;28;20030;-83
2022/01/13 11:29:56;;;;;;;57.97;20.17;;;;;;;1.44;100.00;103969.53;4986562;28;20034;-81
2022/01/13 11:32:23;;;;;;;66.35;21.48;;;;;;;1.42;100.00;103968.59;4989604;28;20026;-82